Time;durP1;ratioP1;P1;durP2;ratioP2;P2;SDS_P1;SDS_P2;PMS_P1;PMS_P2;Temp;Humidity;BMP_temperature;BMP_pressure;BME280_temperature;BME280_humidity;BME280_pressure;Samples;Min_cycle;Max_cycle;Signal;HPM_P1;HPM_P2
2022/03/14 00:00:07;;;;;;;9.80;5.73;;;;;;;;;;5054794;28;20396;-81
2022/03/14 00:02:40;;;;;;;14.23;5.53;;;;;;;;;;5055004;28;20401;-81
2022/03/14 00:05:06;;;;;;;7.00;5.30;;;;;;;;;;5055163;28;20400;-81
2022/03/14 00:07:38;;;;;;;6.67;4.70;;;;;;;;;;5053299;28;20409;-82
2022/03/14 00:10:04;;;;;;;8.33;5.37;;;;;;;;;;5054236;28;20763;-81
2022/03/14 00:12:31;;;;;;;7.73;5.10;;;;;;;;;;5053079;28;20476;-82
2022/03/14 00:15:00;;;;;;;6.37;5.10;;;;;;;;;;5054424;28;20469;-81
2022/03/14 00:17:29;;;;;;;5.87;4.97;;;;;;;;;;5053097;28;20431;-81
2022/03/14 00:19:59;;;;;;;11.37;6.23;;;;;;;;;;5054187;28;20420;-81
2022/03/14 00:22:25;;;;;;;11.50;4.40;;;;;;;;;;5054296;28;20416;-81
2022/03/14 00:24:52;;;;;;;8.87;5.00;;;;;;;;;;5053610;28;20471;-81
2022/03/14 00:27:18;;;;;;;8.03;5.07;;;;;;;;;;5054245;28;20774;-81
2022/03/14 00:29:44;;;;;;;6.50;5.03;;;;;;;;;;5054092;28;20507;-80
2022/03/14 00:32:10;;;;;;;7.10;4.50;;;;;;;;;;5053694;28;20566;-81
2022/03/14 00:34:36;;;;;;;7.93;4.60;;;;;;;;;;5033546;28;20407;-81
2022/03/14 00:37:02;;;;;;;6.40;4.70;;;;;;;;;;5049891;28;20469;-81
2022/03/14 00:39:28;;;;;;;9.03;6.27;;;;;;;;;;5053632;28;20408;-81
2022/03/14 00:41:54;;;;;;;7.50;5.10;;;;;;;;;;5053835;28;20420;-81
2022/03/14 00:44:20;;;;;;;6.67;4.80;;;;;;;;;;5053723;28;20465;-80
2022/03/14 00:46:46;;;;;;;5.83;4.50;;;;;;;;;;5053772;28;20412;-80
2022/03/14 00:49:12;;;;;;;6.40;4.23;;;;;;;;;;5053661;28;20900;-81
2022/03/14 00:51:44;;;;;;;6.20;4.30;;;;;;;;;;5053654;28;20483;-81
2022/03/14 00:54:10;;;;;;;7.60;4.63;;;;;;;;;;5053267;28;20804;-81
2022/03/14 00:56:36;;;;;;;5.57;4.73;;;;;;;;;;5052654;28;20481;-80
2022/03/14 00:59:02;;;;;;;6.97;4.63;;;;;;;;;;5053074;28;20419;-81
2022/03/14 01:01:28;;;;;;;5.17;4.20;;;;;;;;;;5053502;28;20405;-81
2022/03/14 01:03:55;;;;;;;6.10;4.00;;;;;;;;;;5053378;28;20431;-81
2022/03/14 01:06:21;;;;;;;5.93;4.60;;;;;;;;;;5053386;28;20466;-81
2022/03/14 01:08:47;;;;;;;8.60;4.40;;;;;;;;;;5053059;28;20896;-81
2022/03/14 01:11:13;;;;;;;8.23;5.50;;;;;;;;;;5053312;28;20478;-81
2022/03/14 01:13:40;;;;;;;6.23;4.67;;;;;;;;;;5053272;28;20400;-81
2022/03/14 01:16:06;;;;;;;6.17;4.60;;;;;;;;;;5053310;28;20420;-82
2022/03/14 01:18:32;;;;;;;8.43;4.70;;;;;;;;;;5053303;28;20550;-82
2022/03/14 01:20:58;;;;;;;11.30;4.80;;;;;;;;;;5053305;28;20550;-82
2022/03/14 01:23:24;;;;;;;8.13;5.30;;;;;;;;;;5051613;28;20417;-81
2022/03/14 01:25:51;;;;;;;7.00;5.47;;;;;;;;;;5052952;28;20508;-81
2022/03/14 01:28:17;;;;;;;6.17;4.30;;;;;;;;;;5053107;28;20526;-82
2022/03/14 01:30:46;;;;;;;6.47;4.63;;;;;;;;;;5052944;28;20448;-81
2022/03/14 01:33:12;;;;;;;9.60;4.73;;;;;;;;;;5052993;28;20420;-81
2022/03/14 01:35:40;;;;;;;7.43;5.00;;;;;;;;;;5052935;28;20491;-81
2022/03/14 01:38:10;;;;;;;8.70;5.27;;;;;;;;;;5052581;28;20408;-81
2022/03/14 01:40:36;;;;;;;11.40;5.40;;;;;;;;;;5052895;28;20966;-81
2022/03/14 01:43:02;;;;;;;5.70;4.73;;;;;;;;;;5051646;28;20420;-81
2022/03/14 01:45:27;;;;;;;6.50;4.40;;;;;;;;;;5052867;28;20404;-81
2022/03/14 01:47:53;;;;;;;5.73;3.70;;;;;;;;;;5052697;28;20412;-81
2022/03/14 01:50:19;;;;;;;5.93;4.00;;;;;;;;;;5052640;28;20950;-81
2022/03/14 01:52:47;;;;;;;6.00;4.53;;;;;;;;;;5052439;28;20475;-81
2022/03/14 01:55:14;;;;;;;6.40;4.83;;;;;;;;;;5052750;28;20495;-81
2022/03/14 01:57:40;;;;;;;5.07;4.33;;;;;;;;;;5052705;28;20412;-81
2022/03/14 02:00:07;;;;;;;6.73;4.63;;;;;;;;;;5052810;28;20419;-81
2022/03/14 02:02:33;;;;;;;6.70;3.83;;;;;;;;;;5052644;28;20412;-81
2022/03/14 02:04:58;;;;;;;5.40;4.30;;;;;;;;;;5052677;28;20526;-81
2022/03/14 02:07:25;;;;;;;6.27;4.30;;;;;;;;;;5052629;28;20512;-81
2022/03/14 02:09:51;;;;;;;7.57;5.27;;;;;;;;;;5052193;28;20481;-81
2022/03/14 02:12:18;;;;;;;7.20;4.20;;;;;;;;;;5052638;28;20479;-81
2022/03/14 02:14:44;;;;;;;7.60;4.70;;;;;;;;;;5052498;28;20432;-81
2022/03/14 02:17:11;;;;;;;13.37;5.87;;;;;;;;;;5052458;28;20420;-81
2022/03/14 02:19:37;;;;;;;8.93;5.10;;;;;;;;;;5052562;28;20404;-81
2022/03/14 02:22:04;;;;;;;6.80;5.17;;;;;;;;;;5052539;28;20465;-81
2022/03/14 02:24:30;;;;;;;7.53;4.30;;;;;;;;;;5050805;28;20509;-81
2022/03/14 02:26:57;;;;;;;7.00;4.57;;;;;;;;;;5052564;28;20427;-81
2022/03/14 02:29:24;;;;;;;6.80;4.60;;;;;;;;;;5052394;28;20412;-81
2022/03/14 02:31:50;;;;;;;8.33;4.60;;;;;;;;;;5052396;28;20463;-81
2022/03/14 02:34:16;;;;;;;9.10;5.20;;;;;;;;;;5051135;28;21054;-81
2022/03/14 02:36:42;;;;;;;5.37;4.87;;;;;;;;;;5052387;28;20423;-81
2022/03/14 02:39:11;;;;;;;5.47;5.00;;;;;;;;;;5052058;28;20407;-81
2022/03/14 02:41:38;;;;;;;10.50;5.37;;;;;;;;;;5052355;28;20431;-81
2022/03/14 02:44:08;;;;;;;8.40;5.30;;;;;;;;;;5052355;28;20431;-80
2022/03/14 02:46:34;;;;;;;6.40;5.20;;;;;;;;;;5052409;28;20408;-81
2022/03/14 02:49:07;;;;;;;5.33;4.43;;;;;;;;;;5052307;28;20419;-81
2022/03/14 02:51:39;;;;;;;6.23;4.40;;;;;;;;;;5052123;28;20479;-81
2022/03/14 02:54:06;;;;;;;9.90;6.57;;;;;;;;;;5051894;28;20769;-80
2022/03/14 02:56:32;;;;;;;7.70;4.43;;;;;;;;;;5052215;28;20436;-80
2022/03/14 02:58:58;;;;;;;8.50;4.90;;;;;;;;;;5054017;28;20436;-81
2022/03/14 03:01:24;;;;;;;7.17;5.07;;;;;;;;;;5055884;28;20914;-80
2022/03/14 03:03:50;;;;;;;5.20;4.27;;;;;;;;;;5054504;28;20897;-80
2022/03/14 03:06:22;;;;;;;8.40;5.30;;;;;;;;;;5055674;28;20507;-80
2022/03/14 03:08:49;;;;;;;5.90;4.60;;;;;;;;;;5055349;28;20404;-81
2022/03/14 03:11:15;;;;;;;8.70;6.00;;;;;;;;;;5055532;28;20457;-81
2022/03/14 03:13:41;;;;;;;6.43;5.03;;;;;;;;;;5055552;28;20454;-81
2022/03/14 03:16:08;;;;;;;6.63;5.23;;;;;;;;;;5054242;28;20491;-81
2022/03/14 03:18:34;;;;;;;6.73;4.43;;;;;;;;;;5055497;28;20507;-80
2022/03/14 03:21:00;;;;;;;10.33;5.57;;;;;;;;;;5055469;28;20408;-80
2022/03/14 03:23:26;;;;;;;9.93;6.80;;;;;;;;;;5053795;28;20767;-80
2022/03/14 03:25:52;;;;;;;5.80;4.37;;;;;;;;;;5053868;28;20464;-80
2022/03/14 03:28:18;;;;;;;8.70;4.93;;;;;;;;;;5055282;28;20909;-81
2022/03/14 03:30:44;;;;;;;8.23;6.10;;;;;;;;;;5055081;28;20958;-80
2022/03/14 03:33:10;;;;;;;10.50;5.90;;;;;;;;;;5055200;28;20757;-80
2022/03/14 03:35:36;;;;;;;6.90;4.57;;;;;;;;;;5055289;28;20943;-79
2022/03/14 03:38:02;;;;;;;9.87;5.93;;;;;;;;;;5054740;28;20411;-80
2022/03/14 03:40:28;;;;;;;7.50;5.50;;;;;;;;;;5055162;28;20495;-81
2022/03/14 03:42:54;;;;;;;7.70;5.90;;;;;;;;;;5053818;28;20423;-80
2022/03/14 03:45:20;;;;;;;13.37;5.07;;;;;;;;;;5055094;28;20413;-80
2022/03/14 03:47:46;;;;;;;5.40;4.90;;;;;;;;;;5053725;28;20428;-80
2022/03/14 03:50:12;;;;;;;10.10;5.80;;;;;;;;;;5053636;28;20431;-81
2022/03/14 03:52:38;;;;;;;11.50;5.80;;;;;;;;;;5053183;28;20537;-80
2022/03/14 03:55:05;;;;;;;8.43;5.90;;;;;;;;;;5054829;28;20761;-81
2022/03/14 03:57:31;;;;;;;6.03;5.27;;;;;;;;;;5054884;28;20773;-81
2022/03/14 04:00:00;;;;;;;6.33;5.30;;;;;;;;;;5054757;28;20743;-80
2022/03/14 04:02:27;;;;;;;7.97;6.13;;;;;;;;;;5054678;28;20508;-81
2022/03/14 04:04:53;;;;;;;8.70;5.13;;;;;;;;;;5054632;28;20499;-80
2022/03/14 04:07:23;;;;;;;12.50;7.07;;;;;;;;;;5054240;28;20757;-81
2022/03/14 04:09:56;;;;;;;8.63;5.47;;;;;;;;;;5054579;28;20503;-80
2022/03/14 04:12:28;;;;;;;9.03;6.07;;;;;;;;;;5054421;28;20491;-80
2022/03/14 04:14:58;;;;;;;12.53;5.60;;;;;;;;;;5054472;28;20406;-80
2022/03/14 04:17:25;;;;;;;9.60;5.67;;;;;;;;;;5054429;28;20778;-80
2022/03/14 04:19:57;;;;;;;10.73;6.53;;;;;;;;;;5054452;28;20859;-80
2022/03/14 04:22:23;;;;;;;11.03;6.93;;;;;;;;;;5054106;28;20408;-81
2022/03/14 04:24:49;;;;;;;7.60;5.27;;;;;;;;;;5053013;28;20836;-80
2022/03/14 04:27:14;;;;;;;8.13;6.33;;;;;;;;;;5054748;28;20886;-81
2022/03/14 04:29:43;;;;;;;6.57;5.67;;;;;;;;;;5054884;28;20416;-81
2022/03/14 04:32:09;;;;;;;7.93;6.50;;;;;;;;;;5054022;28;20826;-81
2022/03/14 04:34:35;;;;;;;12.03;6.97;;;;;;;;;;5054149;28;20499;-81
2022/03/14 04:37:01;;;;;;;10.20;6.33;;;;;;;;;;5054050;28;20817;-81
2022/03/14 04:39:27;;;;;;;8.27;6.00;;;;;;;;;;5053673;28;20416;-80
2022/03/14 04:41:54;;;;;;;9.30;6.17;;;;;;;;;;5052702;28;20424;-80
2022/03/14 04:44:29;;;;;;;9.27;6.37;;;;;;;;;;5053984;28;20442;-81
2022/03/14 04:46:59;;;;;;;8.33;5.73;;;;;;;;;;5053991;28;20415;-82
2022/03/14 04:49:26;;;;;;;6.93;5.80;;;;;;;;;;5064321;28;20407;-81
2022/03/14 04:51:54;;;;;;;8.87;6.17;;;;;;;;;;5055719;28;20470;-82
2022/03/14 04:54:20;;;;;;;7.23;6.17;;;;;;;;;;5055740;28;20892;-81
2022/03/14 04:56:46;;;;;;;10.93;6.30;;;;;;;;;;5055999;28;20555;-81
2022/03/14 04:59:12;;;;;;;8.00;5.00;;;;;;;;;;5052892;28;20408;-81
2022/03/14 05:01:38;;;;;;;9.07;6.13;;;;;;;;;;5053719;28;20416;-81
2022/03/14 05:04:04;;;;;;;12.07;6.93;;;;;;;;;;5053549;28;20412;-81
2022/03/14 05:06:32;;;;;;;6.77;6.07;;;;;;;;;;5053570;28;20417;-82
2022/03/14 05:08:57;;;;;;;8.00;6.03;;;;;;;;;;5053100;28;20486;-82
2022/03/14 05:11:23;;;;;;;16.00;7.20;;;;;;;;;;5052099;28;20467;-81
2022/03/14 05:13:49;;;;;;;9.73;6.07;;;;;;;;;;5053294;28;20404;-81
2022/03/14 05:16:15;;;;;;;13.13;7.13;;;;;;;;;;5053318;28;20881;-82
2022/03/14 05:18:41;;;;;;;11.20;7.20;;;;;;;;;;5053294;28;20889;-81
2022/03/14 05:21:07;;;;;;;8.03;6.47;;;;;;;;;;5052792;28;20451;-81
2022/03/14 05:23:34;;;;;;;11.80;6.07;;;;;;;;;;5052797;28;20915;-81
2022/03/14 05:26:00;;;;;;;10.37;6.80;;;;;;;;;;5052950;28;20574;-81
2022/03/14 05:28:26;;;;;;;11.10;6.13;;;;;;;;;;5053169;28;20420;-80
2022/03/14 05:30:52;;;;;;;13.03;7.10;;;;;;;;;;5052999;28;20570;-81
2022/03/14 05:33:18;;;;;;;9.33;6.20;;;;;;;;;;5053089;28;20420;-81
2022/03/14 05:35:44;;;;;;;11.27;6.97;;;;;;;;;;5052973;28;20789;-81
2022/03/14 05:38:10;;;;;;;10.03;6.70;;;;;;;;;;5052683;28;20511;-80
2022/03/14 05:40:36;;;;;;;10.87;7.13;;;;;;;;;;5053024;28;20915;-81
2022/03/14 05:43:07;;;;;;;11.10;6.03;;;;;;;;;;5051697;28;20474;-80
2022/03/14 05:45:33;;;;;;;12.17;7.17;;;;;;;;;;5052941;28;20934;-81
2022/03/14 05:47:59;;;;;;;11.40;7.70;;;;;;;;;;5052783;28;20412;-81
2022/03/14 05:50:25;;;;;;;12.30;8.20;;;;;;;;;;5052896;28;20459;-81
2022/03/14 05:52:54;;;;;;;10.53;6.73;;;;;;;;;;5051499;28;20563;-81
2022/03/14 05:55:21;;;;;;;10.90;7.67;;;;;;;;;;5052932;28;20898;-81
2022/03/14 05:57:47;;;;;;;8.63;7.17;;;;;;;;;;5052889;28;21042;-80
2022/03/14 06:00:23;;;;;;;10.43;6.17;;;;;;;;;;5052945;28;20492;-80
2022/03/14 06:02:50;;;;;;;12.63;8.03;;;;;;;;;;5053141;28;20422;-81
2022/03/14 06:05:18;;;;;;;7.90;6.70;;;;;;;;;;5051597;28;20424;-81
2022/03/14 06:07:44;;;;;;;13.50;8.30;;;;;;;;;;5052506;28;20755;-81
2022/03/14 06:10:11;;;;;;;9.83;7.30;;;;;;;;;;5052696;28;20408;-81
2022/03/14 06:12:37;;;;;;;11.33;6.97;;;;;;;;;;5052595;28;20560;-81
2022/03/14 06:15:04;;;;;;;9.13;7.37;;;;;;;;;;5052804;28;20543;-81
2022/03/14 06:17:30;;;;;;;11.27;7.63;;;;;;;;;;5053117;28;20407;-81
2022/03/14 06:19:56;;;;;;;11.07;7.47;;;;;;;;;;5052980;28;20408;-81
2022/03/14 06:22:22;;;;;;;13.00;7.50;;;;;;;;;;5052607;28;20768;-81
2022/03/14 06:24:54;;;;;;;11.57;7.33;;;;;;;;;;5051365;28;20459;-81
2022/03/14 06:27:21;;;;;;;11.83;6.73;;;;;;;;;;5053074;28;20434;-81
2022/03/14 06:29:48;;;;;;;15.00;8.20;;;;;;;;;;5052819;28;20447;-81
2022/03/14 06:32:15;;;;;;;11.50;7.60;;;;;;;;;;5052881;28;20467;-81
2022/03/14 06:34:42;;;;;;;10.77;7.30;;;;;;;;;;5055374;28;20439;-81
2022/03/14 06:37:08;;;;;;;12.50;7.97;;;;;;;;;;5055913;28;20900;-81
2022/03/14 06:39:38;;;;;;;17.27;9.67;;;;;;;;;;5056116;28;20418;-81
2022/03/14 06:42:09;;;;;;;11.73;7.97;;;;;;;;;;5055960;28;20472;-82
2022/03/14 06:44:38;;;;;;;9.87;6.57;;;;;;;;;;5056176;28;20409;-81
2022/03/14 06:47:04;;;;;;;10.93;6.90;;;;;;;;;;5055995;28;20424;-81
2022/03/14 06:49:30;;;;;;;9.50;6.97;;;;;;;;;;5055975;28;20904;-81
2022/03/14 06:51:56;;;;;;;15.60;8.83;;;;;;;;;;5055496;28;20472;-81
2022/03/14 06:54:23;;;;;;;8.17;7.37;;;;;;;;;;5055979;28;20753;-80
2022/03/14 06:56:49;;;;;;;10.03;7.27;;;;;;;;;;5055836;28;20400;-81
2022/03/14 06:59:15;;;;;;;11.13;7.30;;;;;;;;;;5055681;28;20435;-81
2022/03/14 07:01:41;;;;;;;12.23;7.30;;;;;;;;;;5055797;28;20765;-81
2022/03/14 07:04:07;;;;;;;13.10;7.30;;;;;;;;;;5055629;28;20486;-82
2022/03/14 07:06:34;;;;;;;14.73;9.13;;;;;;;;;;5055562;28;20472;-81
2022/03/14 07:09:00;;;;;;;13.17;8.43;;;;;;;;;;5055396;28;20842;-81
2022/03/14 07:11:26;;;;;;;11.53;7.20;;;;;;;;;;5055489;28;20455;-80
2022/03/14 07:13:52;;;;;;;11.33;8.00;;;;;;;;;;5054336;28;20428;-80
2022/03/14 07:16:18;;;;;;;14.57;8.10;;;;;;;;;;5053446;28;20796;-82
2022/03/14 07:18:44;;;;;;;12.60;8.97;;;;;;;;;;5055674;28;20549;-82
2022/03/14 07:21:10;;;;;;;11.23;8.37;;;;;;;;;;5055586;28;20414;-83
2022/03/14 07:23:37;;;;;;;10.13;7.10;;;;;;;;;;5055102;28;20417;-83
2022/03/14 07:26:02;;;;;;;11.70;7.87;;;;;;;;;;5053866;28;20470;-83
2022/03/14 07:28:28;;;;;;;11.87;7.53;;;;;;;;;;5055389;28;20898;-81
2022/03/14 07:30:54;;;;;;;12.73;8.10;;;;;;;;;;5055231;28;20411;-82
2022/03/14 07:33:20;;;;;;;10.27;7.30;;;;;;;;;;5055277;28;20771;-80
2022/03/14 07:35:46;;;;;;;10.30;7.90;;;;;;;;;;5055293;28;20561;-81
2022/03/14 07:38:12;;;;;;;12.07;8.57;;;;;;;;;;5054933;28;20741;-81
2022/03/14 07:40:38;;;;;;;12.80;8.47;;;;;;;;;;5055156;28;20390;-81
2022/03/14 07:43:04;;;;;;;9.70;7.73;;;;;;;;;;5055060;28;20409;-80
2022/03/14 07:45:31;;;;;;;8.30;7.40;;;;;;;;;;5054646;28;20404;-80
2022/03/14 07:47:57;;;;;;;11.10;7.00;;;;;;;;;;5053755;28;20835;-81
2022/03/14 07:50:24;;;;;;;15.53;9.50;;;;;;;;;;5053700;28;20426;-81
2022/03/14 07:52:50;;;;;;;11.40;7.87;;;;;;;;;;5054526;28;20461;-80
2022/03/14 07:55:16;;;;;;;15.57;8.90;;;;;;;;;;5054936;28;20421;-80
2022/03/14 07:57:42;;;;;;;10.70;8.40;;;;;;;;;;5054742;28;20909;-81
2022/03/14 08:00:11;;;;;;;14.23;8.40;;;;;;;;;;5055050;28;20504;-80
2022/03/14 08:02:37;;;;;;;12.27;8.00;;;;;;;;;;5055785;28;20820;-81
2022/03/14 08:05:04;;;;;;;13.13;7.93;;;;;;;;;;5053552;28;20431;-80
2022/03/14 08:07:30;;;;;;;11.67;8.67;;;;;;;;;;5054231;28;20890;-81
2022/03/14 08:09:56;;;;;;;12.73;8.10;;;;;;;;;;5054470;28;20413;-82
2022/03/14 08:12:22;;;;;;;12.03;8.33;;;;;;;;;;5054333;28;20468;-82
2022/03/14 08:14:49;;;;;;;11.50;8.47;;;;;;;;;;5054445;28;20765;-80
2022/03/14 08:17:16;;;;;;;12.23;7.90;;;;;;;;;;5054463;28;20533;-80
2022/03/14 08:19:42;;;;;;;9.17;7.40;;;;;;;;;;5049997;28;20933;-81
2022/03/14 08:22:08;;;;;;;12.17;8.30;;;;;;;;;;5045112;28;20422;-82
2022/03/14 08:24:34;;;;;;;13.47;8.17;;;;;;;;;;5054048;28;20411;-81
2022/03/14 08:27:01;;;;;;;10.77;7.70;;;;;;;;;;5052973;28;20421;-81
2022/03/14 08:29:28;;;;;;;9.40;6.60;;;;;;;;;;5054188;28;20413;-81
2022/03/14 08:31:53;;;;;;;10.90;8.50;;;;;;;;;;5054011;28;20483;-81
2022/03/14 08:34:20;;;;;;;11.80;8.97;;;;;;;;;;5053990;28;20416;-81
2022/03/14 08:36:46;;;;;;;13.40;8.47;;;;;;;;;;5053768;28;20494;-81
2022/03/14 08:39:12;;;;;;;10.20;7.20;;;;;;;;;;5053801;28;20406;-82
2022/03/14 08:41:39;;;;;;;12.17;8.00;;;;;;;;;;5053938;28;20409;-81
2022/03/14 08:44:05;;;;;;;10.77;8.00;;;;;;;;;;5053893;28;20405;-82
2022/03/14 08:46:31;;;;;;;10.20;8.10;;;;;;;;;;5053871;28;20419;-81
2022/03/14 08:48:57;;;;;;;13.77;8.70;;;;;;;;;;5053813;28;20409;-81
2022/03/14 08:51:23;;;;;;;9.53;7.30;;;;;;;;;;5052444;28;20493;-81
2022/03/14 08:53:49;;;;;;;13.30;9.67;;;;;;;;;;5053251;28;20402;-82
2022/03/14 08:56:15;;;;;;;11.13;7.77;;;;;;;;;;5049119;28;20537;-81
2022/03/14 08:58:42;;;;;;;14.70;8.40;;;;;;;;;;5035166;28;20429;-82
2022/03/14 09:01:10;;;;;;;10.73;7.80;;;;;;;;;;5033705;28;20449;-82
2022/03/14 09:03:36;;;;;;;10.67;8.03;;;;;;;;;;5033543;28;20408;-81
2022/03/14 09:06:02;;;;;;;10.77;9.70;;;;;;;;;;5048721;28;20424;-82
2022/03/14 09:08:28;;;;;;;12.00;9.20;;;;;;;;;;5033017;28;20415;-81
2022/03/14 09:10:55;;;;;;;11.57;10.37;;;;;;;;;;5033397;28;20506;-81
2022/03/14 09:13:21;;;;;;;10.30;8.43;;;;;;;;;;5048829;28;20485;-81
2022/03/14 09:15:48;;;;;;;9.97;8.33;;;;;;;;;;5033422;28;20414;-81
2022/03/14 09:18:14;;;;;;;11.50;9.40;;;;;;;;;;5033458;28;20408;-81
2022/03/14 09:20:40;;;;;;;10.70;9.33;;;;;;;;;;5033322;28;20409;-83
2022/03/14 09:23:07;;;;;;;13.67;9.87;;;;;;;;;;5032939;28;20500;-82
2022/03/14 09:25:33;;;;;;;11.23;8.10;;;;;;;;;;5033138;28;20510;-83
2022/03/14 09:27:59;;;;;;;11.27;9.37;;;;;;;;;;5031662;28;20415;-82
2022/03/14 09:30:26;;;;;;;12.70;9.80;;;;;;;;;;5031324;28;20412;-81
2022/03/14 09:32:53;;;;;;;10.37;8.20;;;;;;;;;;5031205;28;20484;-82
2022/03/14 09:35:19;;;;;;;16.67;9.50;;;;;;;;;;5032521;28;20409;-82
2022/03/14 09:37:46;;;;;;;11.67;9.00;;;;;;;;;;5032823;28;20466;-83
2022/03/14 09:40:13;;;;;;;12.47;9.20;;;;;;;;;;5031618;28;20410;-82
2022/03/14 09:42:46;;;;;;;12.10;10.00;;;;;;;;;;5030561;28;20443;-82
2022/03/14 09:45:14;;;;;;;11.43;9.00;;;;;;;;;;5031123;28;20404;-82
2022/03/14 09:47:43;;;;;;;11.30;9.20;;;;;;;;;;5032839;28;20414;-81
2022/03/14 09:50:14;;;;;;;10.90;9.60;;;;;;;;;;5032928;28;20418;-81
2022/03/14 09:52:41;;;;;;;12.70;10.20;;;;;;;;;;5032618;28;20536;-82
2022/03/14 09:55:08;;;;;;;11.07;7.37;;;;;;;;;;5032965;28;20423;-82
2022/03/14 09:57:35;;;;;;;8.30;7.50;;;;;;;;;;5032862;28;20397;-81
2022/03/14 10:00:02;;;;;;;11.60;9.63;;;;;;;;;;5032805;28;20414;-82
2022/03/14 10:02:28;;;;;;;10.27;9.13;;;;;;;;;;5032854;28;20431;-82
2022/03/14 10:04:54;;;;;;;11.33;8.40;;;;;;;;;;5032771;28;20512;-81
2022/03/14 10:07:21;;;;;;;9.00;7.60;;;;;;;;;;5048719;28;20423;-81
2022/03/14 10:09:47;;;;;;;12.93;8.53;;;;;;;;;;5036840;28;20422;-82
2022/03/14 10:12:15;;;;;;;9.80;7.50;;;;;;;;;;5036813;28;20476;-82
2022/03/14 10:14:41;;;;;;;9.23;7.70;;;;;;;;;;5036853;28;20406;-81
2022/03/14 10:17:07;;;;;;;10.90;8.50;;;;;;;;;;5036726;28;20414;-81
2022/03/14 10:19:37;;;;;;;9.77;8.20;;;;;;;;;;5036786;28;20414;-81
2022/03/14 10:22:16;;;;;;;10.97;8.50;;;;;;;;;;5036390;28;20409;-81
2022/03/14 10:24:43;;;;;;;9.67;8.33;;;;;;;;;;5051870;28;20419;-81
2022/03/14 10:27:10;;;;;;;9.57;7.23;;;;;;;;;;5036566;28;20423;-81
2022/03/14 10:29:37;;;;;;;11.27;7.60;;;;;;;;;;5051922;28;20472;-81
2022/03/14 10:32:29;;;;;;;8.47;7.30;;;;;;;;;;5036465;28;20483;-81
2022/03/14 10:34:58;;;;;;;11.40;8.13;;;;;;;;;;5051946;28;20440;-81
2022/03/14 10:37:28;;;;;;;13.03;7.73;;;;;;;;;;5051741;28;20936;-81
2022/03/14 10:40:04;;;;;;;9.50;6.90;;;;;;;;;;5051838;28;20428;-81
2022/03/14 10:42:37;;;;;;;9.13;7.60;;;;;;;;;;5051648;28;20420;-81
2022/03/14 10:45:07;;;;;;;12.17;8.17;;;;;;;;;;5036477;28;20405;-81
2022/03/14 10:47:33;;;;;;;10.20;7.90;;;;;;;;;;5036149;28;20421;-81
2022/03/14 10:49:59;;;;;;;9.90;7.20;;;;;;;;;;5051530;28;20419;-81
2022/03/14 10:52:25;;;;;;;9.53;7.20;;;;;;;;;;5050987;28;20494;-81
2022/03/14 10:54:51;;;;;;;8.53;7.17;;;;;;;;;;5051434;28;20474;-81
2022/03/14 10:57:17;;;;;;;11.90;7.80;;;;;;;;;;5051456;28;20477;-81
2022/03/14 10:59:44;;;;;;;11.77;9.33;;;;;;;;;;5036008;28;20691;-81
2022/03/14 11:02:12;;;;;;;9.87;7.70;;;;;;;;;;5035696;28;20421;-81
2022/03/14 11:04:48;;;;;;;11.17;7.47;;;;;;;;;;5064173;28;20432;-84
2022/03/14 11:07:14;;;;;;;9.90;7.93;;;;;;;;;;5057989;28;20423;-84
2022/03/14 11:09:41;;;;;;;13.63;6.43;;;;;;;;;;5062787;28;20422;-85
2022/03/14 11:12:09;;;;;;;9.70;7.53;;;;;;;;;;5060628;28;20483;-87
2022/03/14 11:14:35;;;;;;;9.30;6.40;;;;;;;;;;5071285;28;20410;-88
2022/03/14 11:17:16;;;;;;;11.33;7.93;;;;;;;;;;5070931;28;20474;-87
2022/03/14 11:19:43;;;;;;;14.20;7.87;;;;;;;;;;5076249;28;20903;-87
2022/03/14 11:22:13;;;;;;;12.47;7.30;;;;;;;;;;5074659;28;20444;-86
2022/03/14 11:24:40;;;;;;;13.20;8.00;;;;;;;;;;5076281;28;20410;-87
2022/03/14 11:27:07;;;;;;;8.73;6.40;;;;;;;;;;5076797;28;20525;-87
2022/03/14 11:29:33;;;;;;;8.23;6.30;;;;;;;;;;5076533;28;20407;-85
2022/03/14 11:32:00;;;;;;;10.60;7.27;;;;;;;;;;5076252;28;20475;-87
2022/03/14 11:34:29;;;;;;;9.57;6.77;;;;;;;;;;5076725;28;20988;-86
2022/03/14 11:36:54;;;;;;;11.03;7.77;;;;;;;;;;5076866;28;20805;-85
2022/03/14 11:39:22;;;;;;;7.20;6.50;;;;;;;;;;5079963;28;20457;-86
2022/03/14 11:41:49;;;;;;;10.50;7.70;;;;;;;;;;5078356;28;20430;-87
2022/03/14 11:44:16;;;;;;;7.67;6.73;;;;;;;;;;5092228;28;20434;-91
2022/03/14 11:46:42;;;;;;;8.10;6.50;;;;;;;;;;5091999;28;20397;-90
2022/03/14 11:49:35;;;;;;;9.80;6.67;;;;;;;;;;5097316;28;20425;-87
2022/03/14 11:52:07;;;;;;;9.40;6.83;;;;;;;;;;5096180;28;20484;-90
2022/03/14 11:54:43;;;;;;;9.10;7.43;;;;;;;;;;5086969;28;20467;-90
2022/03/14 11:57:10;;;;;;;10.93;7.40;;;;;;;;;;5068482;28;20420;-92
2022/03/14 11:59:36;;;;;;;8.00;6.23;;;;;;;;;;5068308;28;20411;-90
2022/03/14 12:02:05;;;;;;;8.70;6.87;;;;;;;;;;5064820;28;20439;-88
2022/03/14 12:04:33;;;;;;;9.60;6.93;;;;;;;;;;5057008;28;20412;-87
2022/03/14 12:06:59;;;;;;;7.97;6.70;;;;;;;;;;5053161;28;20414;-87
2022/03/14 12:09:25;;;;;;;11.70;8.13;;;;;;;;;;5054995;28;20897;-86
2022/03/14 12:11:51;;;;;;;10.40;8.00;;;;;;;;;;5053377;28;20564;-86
2022/03/14 12:14:36;;;;;;;8.53;7.03;;;;;;;;;;5053980;28;20521;-87
2022/03/14 12:17:14;;;;;;;12.40;7.03;;;;;;;;;;5053579;28;20885;-85
2022/03/14 12:19:47;;;;;;;10.60;7.30;;;;;;;;;;5053070;28;20453;-86
2022/03/14 12:22:32;;;;;;;10.20;8.07;;;;;;;;;;5054208;28;20409;-86
2022/03/14 12:24:59;;;;;;;8.67;7.13;;;;;;;;;;5054537;28;20462;-79
2022/03/14 12:27:26;;;;;;;11.03;7.70;;;;;;;;;;5054496;28;20497;-78
2022/03/14 12:29:55;;;;;;;7.63;6.03;;;;;;;;;;5054165;28;20445;-79
2022/03/14 12:32:24;;;;;;;10.27;7.33;;;;;;;;;;5053160;28;20557;-80
2022/03/14 12:35:03;;;;;;;15.10;7.43;;;;;;;;;;5045247;28;20810;-78
2022/03/14 12:37:37;;;;;;;9.17;7.23;;;;;;;;;;5046947;28;20417;-79
2022/03/14 12:40:04;;;;;;;10.40;7.60;;;;;;;;;;5045177;28;20919;-79
2022/03/14 12:42:38;;;;;;;11.23;7.93;;;;;;;;;;5034695;28;20555;-78
2022/03/14 12:45:22;;;;;;;12.93;8.23;;;;;;;;;;5034277;28;20411;-79
2022/03/14 12:47:57;;;;;;;14.93;8.07;;;;;;;;;;5034084;28;20408;-77
2022/03/14 12:50:42;;;;;;;12.33;7.77;;;;;;;;;;5033558;28;20818;-78
2022/03/14 12:53:09;;;;;;;10.60;7.23;;;;;;;;;;5033659;28;20474;-79
2022/03/14 12:55:35;;;;;;;11.17;7.70;;;;;;;;;;5033908;28;20469;-79
2022/03/14 12:58:00;;;;;;;8.93;6.40;;;;;;;;;;5033776;28;20427;-78
2022/03/14 13:00:26;;;;;;;11.37;7.17;;;;;;;;;;5033786;28;20474;-78
2022/03/14 13:02:53;;;;;;;8.97;7.53;;;;;;;;;;5033734;28;20412;-78
2022/03/14 13:05:20;;;;;;;13.87;8.30;;;;;;;;;;5033773;28;20457;-78
2022/03/14 13:07:59;;;;;;;13.53;8.60;;;;;;;;;;5032007;28;20420;-78
2022/03/14 13:10:37;;;;;;;11.17;7.53;;;;;;;;;;5032705;28;20777;-79
2022/03/14 13:13:03;;;;;;;11.57;8.70;;;;;;;;;;5034152;28;20499;-79
2022/03/14 13:15:29;;;;;;;11.27;8.13;;;;;;;;;;5033940;28;20900;-79
2022/03/14 13:17:58;;;;;;;12.77;9.13;;;;;;;;;;5033952;28;20411;-79
2022/03/14 13:20:26;;;;;;;15.40;9.53;;;;;;;;;;5034146;28;20420;-79
2022/03/14 13:22:52;;;;;;;10.67;8.90;;;;;;;;;;5033538;28;20498;-79
2022/03/14 13:25:30;;;;;;;16.43;8.57;;;;;;;;;;5033689;28;20554;-79
2022/03/14 13:27:56;;;;;;;11.10;8.50;;;;;;;;;;5033417;28;20430;-79
2022/03/14 13:30:23;;;;;;;10.97;8.50;;;;;;;;;;5032284;28;20423;-78
2022/03/14 13:32:49;;;;;;;12.40;7.53;;;;;;;;;;5033369;28;20571;-80
2022/03/14 13:35:16;;;;;;;11.33;8.20;;;;;;;;;;5033224;28;20412;-80
2022/03/14 13:37:42;;;;;;;11.40;8.10;;;;;;;;;;5032904;28;20519;-79
2022/03/14 13:40:18;;;;;;;10.93;8.50;;;;;;;;;;5033183;28;20422;-79
2022/03/14 13:42:45;;;;;;;11.70;7.87;;;;;;;;;;5032996;28;20418;-79
2022/03/14 13:45:11;;;;;;;13.27;9.27;;;;;;;;;;5015773;28;20426;-79
2022/03/14 13:47:38;;;;;;;16.20;9.33;;;;;;;;;;5033182;28;20410;-80
2022/03/14 13:50:04;;;;;;;14.23;8.90;;;;;;;;;;5033309;28;20463;-79
2022/03/14 13:52:31;;;;;;;15.80;8.77;;;;;;;;;;5032633;28;20493;-79
2022/03/14 13:54:57;;;;;;;12.00;9.43;;;;;;;;;;5033106;28;20453;-79
2022/03/14 13:57:24;;;;;;;12.07;9.13;;;;;;;;;;5032381;28;20401;-79
2022/03/14 13:59:51;;;;;;;16.40;8.80;;;;;;;;;;5031800;28;20404;-77
2022/03/14 14:02:20;;;;;;;13.10;9.37;;;;;;;;;;5033024;28;20414;-77
2022/03/14 14:04:47;;;;;;;15.07;9.97;;;;;;;;;;5032945;28;20400;-78
2022/03/14 14:07:20;;;;;;;13.73;9.50;;;;;;;;;;5031313;28;20422;-77
2022/03/14 14:09:47;;;;;;;12.77;8.60;;;;;;;;;;5032929;28;20512;-77
2022/03/14 14:12:16;;;;;;;12.93;10.10;;;;;;;;;;5031632;28;20832;-78
2022/03/14 14:14:46;;;;;;;15.07;9.80;;;;;;;;;;5033052;28;20466;-78
2022/03/14 14:17:22;;;;;;;16.90;10.63;;;;;;;;;;5032985;28;20420;-78
2022/03/14 14:20:07;;;;;;;17.73;11.17;;;;;;;;;;5032673;28;20404;-79
2022/03/14 14:22:47;;;;;;;12.37;10.10;;;;;;;;;;5030991;28;20414;-78
2022/03/14 14:25:13;;;;;;;16.57;11.00;;;;;;;;;;5032536;28;20553;-78
2022/03/14 14:27:59;;;;;;;13.63;10.77;;;;;;;;;;5032868;28;20448;-78
2022/03/14 14:30:30;;;;;;;14.00;10.80;;;;;;;;;;5032738;28;20926;-78
2022/03/14 14:32:58;;;;;;;14.00;11.50;;;;;;;;;;5032609;28;20471;-78
2022/03/14 14:35:24;;;;;;;17.10;11.87;;;;;;;;;;5032477;28;20918;-78
2022/03/14 14:37:51;;;;;;;15.93;12.00;;;;;;;;;;5032160;28;20814;-77